Time;durP1;ratioP1;P1;durP2;ratioP2;P2;SDS_P1;SDS_P2;PMS_P1;PMS_P2;Temp;Humidity;BMP_temperature;BMP_pressure;BME280_temperature;BME280_humidity;BME280_pressure;Samples;Min_cycle;Max_cycle;Signal;HPM_P1;HPM_P2
2023/05/19 00:00:24;;;;;;;;;19.33;13.33;;;;;;;;1929827;28;2806604;-72
2023/05/19 00:01:36;;;;;;;;;18.50;14.50;;;;;;;;1956082;28;2814899;-71
2023/05/19 00:02:46;;;;;;;;;16.00;14.00;;;;;;;;1938726;28;2791950;-72
2023/05/19 00:04:01;;;;;;;;;15.75;13.25;;;;;;;;1961710;28;1825246;-72
2023/05/19 00:05:17;;;;;;;;;18.40;13.80;;;;;;;;1957344;28;3551228;-72
2023/05/19 00:06:31;;;;;;;;;14.50;13.50;;;;;;;;1957784;28;2804398;-71
2023/05/19 00:07:44;;;;;;;;;16.67;13.67;;;;;;;;1936010;28;2812817;-72
2023/05/19 00:09:09;;;;;;;;;13.50;12.00;;;;;;;;1959508;28;2791875;-71
2023/05/19 00:10:23;;;;;;;;;19.50;16.50;;;;;;;;1965134;28;1836756;-71
2023/05/19 00:11:35;;;;;;;;;20.67;14.67;;;;;;;;1934179;28;2819004;-71
2023/05/19 00:12:47;;;;;;;;;19.33;14.67;;;;;;;;1960390;28;2817016;-71
2023/05/19 00:13:59;;;;;;;;;17.33;15.67;;;;;;;;1957640;28;2812791;-71
2023/05/19 00:15:10;;;;;;;;;14.33;14.33;;;;;;;;1960190;28;2806513;-71
2023/05/19 00:16:21;;;;;;;;;14.00;11.00;;;;;;;;1960693;28;2787815;-71
2023/05/19 00:17:33;;;;;;;;;19.67;18.67;;;;;;;;1936415;28;3571022;-71
2023/05/19 00:18:46;;;;;;;;;19.67;16.33;;;;;;;;1969130;28;3558582;-71
2023/05/19 00:19:57;;;;;;;;;22.67;16.67;;;;;;;;1958040;28;3566908;-72
2023/05/19 00:21:08;;;;;;;;;17.00;14.50;;;;;;;;1976489;28;2817979;-72
2023/05/19 00:22:19;;;;;;;;;14.00;14.00;;;;;;;;1956337;28;2801281;-72
2023/05/19 00:23:30;;;;;;;;;14.00;13.50;;;;;;;;1943145;28;2795066;-72
2023/05/19 00:24:42;;;;;;;;;17.00;14.80;;;;;;;;1964739;28;2818027;-72
2023/05/19 00:25:52;;;;;;;;;15.00;14.50;;;;;;;;1963901;28;2799522;-72
2023/05/19 00:27:05;;;;;;;;;15.57;15.14;;;;;;;;1959164;28;3540866;-71
2023/05/19 00:28:17;;;;;;;;;17.80;15.40;;;;;;;;1987742;28;3540859;-71
2023/05/19 00:29:30;;;;;;;;;18.43;16.00;;;;;;;;1980402;28;3565934;-71
2023/05/19 00:30:42;;;;;;;;;16.80;14.80;;;;;;;;1987066;28;3538069;-71
2023/05/19 00:31:55;;;;;;;;;16.43;14.00;;;;;;;;1982809;28;2815876;-71
2023/05/19 00:33:05;;;;;;;;;9.33;7.33;;;;;;;;1973412;28;1821160;-71
2023/05/19 00:34:18;;;;;;;;;17.43;15.71;;;;;;;;1957627;28;3552336;-71
2023/05/19 00:35:30;;;;;;;;;18.40;17.40;;;;;;;;1984584;28;3562725;-71
2023/05/19 00:36:42;;;;;;;;;18.00;16.60;;;;;;;;1978271;29;3554345;-72
2023/05/19 00:37:55;;;;;;;;;15.57;14.14;;;;;;;;1977673;28;3532530;-71
2023/05/19 00:39:06;;;;;;;;;18.25;15.75;;;;;;;;1980801;28;1822698;-71
2023/05/19 00:40:17;;;;;;;;;16.67;11.67;;;;;;;;1953894;29;2800295;-71
2023/05/19 00:41:28;;;;;;;;;20.33;17.00;;;;;;;;1955020;28;3559628;-71
2023/05/19 00:42:41;;;;;;;;;13.43;12.57;;;;;;;;1982476;28;2807539;-71
2023/05/19 00:43:51;;;;;;;;;16.00;13.00;;;;;;;;1955002;28;2792960;-71
2023/05/19 00:45:03;;;;;;;;;20.80;15.60;;;;;;;;1964426;28;3552325;-71
2023/05/19 00:46:15;;;;;;;;;20.00;18.67;;;;;;;;1967186;28;3565862;-71
2023/05/19 00:47:27;;;;;;;;;14.57;13.00;;;;;;;;1982744;28;3534681;-72
2023/05/19 00:48:43;;;;;;;;;15.57;13.43;;;;;;;;1984671;28;2810718;-71
2023/05/19 00:49:53;;;;;;;;;16.50;13.50;;;;;;;;1958344;28;2822162;-72
2023/05/19 00:51:06;;;;;;;;;21.71;17.00;;;;;;;;1983062;28;3571074;-71
2023/05/19 00:52:19;;;;;;;;;18.14;16.71;;;;;;;;1984041;28;3559660;-72
2023/05/19 00:53:33;;;;;;;;;16.71;16.57;;;;;;;;1983301;28;3565186;-72
2023/05/19 00:54:44;;;;;;;;;14.50;14.00;;;;;;;;1962108;28;2795063;-71
2023/05/19 00:55:55;;;;;;;;;18.00;15.00;;;;;;;;1936620;28;3551221;-71
2023/05/19 00:57:06;;;;;;;;;19.50;14.50;;;;;;;;1963487;28;2801389;-72
2023/05/19 00:58:19;;;;;;;;;16.71;15.57;;;;;;;;1952832;28;3540847;-72
2023/05/19 00:59:32;;;;;;;;;21.14;19.86;;;;;;;;1976495;29;3577329;-71
2023/05/19 01:00:44;;;;;;;;;18.00;15.29;;;;;;;;1979562;28;3561704;-71
2023/05/19 01:01:56;;;;;;;;;20.60;16.80;;;;;;;;1986612;28;3562702;-71
2023/05/19 01:03:11;;;;;;;;;17.60;14.40;;;;;;;;1978261;28;3540836;-72
2023/05/19 01:04:24;;;;;;;;;16.67;16.67;;;;;;;;1959712;28;2817316;-71
2023/05/19 01:05:35;;;;;;;;;16.00;15.00;;;;;;;;1962464;28;2816882;-72
2023/05/19 01:06:48;;;;;;;;;20.67;19.33;;;;;;;;1936685;28;3567941;-72
2023/05/19 01:07:58;;;;;;;;;19.00;16.50;;;;;;;;1962899;28;2829485;-71
2023/05/19 01:09:10;;;;;;;;;18.40;16.80;;;;;;;;1985025;28;3560685;-71
2023/05/19 01:10:22;;;;;;;;;19.60;17.40;;;;;;;;1981259;28;3563758;-71
2023/05/19 01:11:35;;;;;;;;;22.43;15.57;;;;;;;;1983300;28;3558559;-71
2023/05/19 01:12:47;;;;;;;;;19.33;16.33;;;;;;;;1972423;28;3561696;-71
2023/05/19 01:13:59;;;;;;;;;18.00;14.67;;;;;;;;1963012;28;3545415;-71
2023/05/19 01:15:11;;;;;;;;;19.20;17.60;;;;;;;;1980992;28;3565152;-71
2023/05/19 01:16:22;;;;;;;;;18.33;16.33;;;;;;;;1965188;28;2825204;-72
2023/05/19 01:17:53;;;;;;;;;16.00;15.00;;;;;;;;1954666;28;2812787;-72
2023/05/19 01:19:11;;;;;;;;;21.00;15.00;;;;;;;;1932297;29;3561067;-72
2023/05/19 01:20:24;;;;;;;;;19.00;17.00;;;;;;;;1959187;28;2833583;-71
2023/05/19 01:21:49;;;;;;;;;21.00;18.00;;;;;;;;1962129;28;2837754;-71
2023/05/19 01:23:13;;;;;;;;;19.33;17.00;;;;;;;;1957675;28;3559605;-71
2023/05/19 01:24:48;;;;;;;;;17.33;16.00;;;;;;;;1954166;28;2821526;-71
2023/05/19 01:26:00;;;;;;;;;23.60;16.20;;;;;;;;1972667;28;2829426;-71
2023/05/19 01:27:25;;;;;;;;;21.43;17.86;;;;;;;;1958247;28;3564837;-71
2023/05/19 01:28:36;;;;;;;;;22.33;18.00;;;;;;;;1954502;28;3579431;-71
2023/05/19 01:29:58;;;;;;;;;15.29;14.00;;;;;;;;1976576;28;2807652;-71
2023/05/19 01:31:10;;;;;;;;;16.00;15.00;;;;;;;;1959331;28;3536709;-71
2023/05/19 01:32:22;;;;;;;;;22.00;17.33;;;;;;;;1961244;28;2828470;-72
2023/05/19 01:33:34;;;;;;;;;16.33;14.00;;;;;;;;1954647;28;2806629;-72
2023/05/19 01:34:48;;;;;;;;;19.67;13.67;;;;;;;;1954081;29;3547173;-71
2023/05/19 01:35:59;;;;;;;;;16.50;14.00;;;;;;;;1960390;28;2792964;-71
2023/05/19 01:37:11;;;;;;;;;19.50;15.00;;;;;;;;1939347;28;2828379;-71
2023/05/19 01:38:23;;;;;;;;;20.50;16.50;;;;;;;;1942061;28;2831473;-71
2023/05/19 01:39:35;;;;;;;;;17.67;16.00;;;;;;;;1942933;28;2812712;-71
2023/05/19 01:40:47;;;;;;;;;20.33;17.00;;;;;;;;1957823;28;3558579;-71
2023/05/19 01:41:59;;;;;;;;;17.00;16.33;;;;;;;;1954421;28;2827496;-71
2023/05/19 01:43:13;;;;;;;;;23.00;17.50;;;;;;;;1958638;28;2841932;-71
2023/05/19 01:44:24;;;;;;;;;18.67;17.00;;;;;;;;1938497;28;3564824;-71
2023/05/19 01:45:37;;;;;;;;;19.40;18.00;;;;;;;;1986780;28;3565813;-71
2023/05/19 01:46:48;;;;;;;;;19.00;17.20;;;;;;;;1973393;28;3557505;-71
2023/05/19 01:48:01;;;;;;;;;24.33;14.67;;;;;;;;1971985;28;3574601;-71
2023/05/19 01:49:12;;;;;;;;;21.00;19.00;;;;;;;;1954774;29;2841955;-71
2023/05/19 01:50:24;;;;;;;;;22.00;15.00;;;;;;;;1944397;28;3563735;-71
2023/05/19 01:51:36;;;;;;;;;21.14;16.29;;;;;;;;1982106;28;3551316;-71
2023/05/19 01:52:48;;;;;;;;;20.40;15.40;;;;;;;;1983226;28;3541877;-71
2023/05/19 01:54:00;;;;;;;;;19.67;15.33;;;;;;;;1974710;28;2812127;-71
2023/05/19 01:55:10;;;;;;;;;19.00;18.00;;;;;;;;1961259;28;2826320;-71
2023/05/19 01:56:30;;;;;;;;;26.20;19.40;;;;;;;;1961501;28;3573102;-71
2023/05/19 01:57:45;;;;;;;;;20.00;16.33;;;;;;;;1961654;28;3546060;-72
2023/05/19 01:59:02;;;;;;;;;20.33;16.67;;;;;;;;1961704;28;3545085;-71
2023/05/19 02:00:31;;;;;;;;;19.00;17.50;;;;;;;;1963487;28;2828432;-71
2023/05/19 02:01:50;;;;;;;;;24.67;16.67;;;;;;;;1936112;28;3576299;-71
2023/05/19 02:03:06;;;;;;;;;9.00;7.50;;;;;;;;1961416;28;2753411;-71
2023/05/19 02:04:20;;;;;;;;;26.50;19.00;;;;;;;;1961351;28;2835668;-71
2023/05/19 02:05:36;;;;;;;;;23.00;19.00;;;;;;;;1961197;28;2836100;-71
2023/05/19 02:07:00;;;;;;;;;22.00;18.33;;;;;;;;1961363;28;3558563;-72
2023/05/19 02:08:11;;;;;;;;;17.67;14.00;;;;;;;;1954885;28;3554436;-71
2023/05/19 02:09:31;;;;;;;;;19.86;17.71;;;;;;;;1972713;28;3546052;-71
2023/05/19 02:10:44;;;;;;;;;16.50;14.00;;;;;;;;1957256;28;2817967;-71
2023/05/19 02:12:14;;;;;;;;;25.33;20.00;;;;;;;;1961737;28;3565842;-72
2023/05/19 02:13:28;;;;;;;;;22.50;19.00;;;;;;;;1963388;28;2819021;-71
2023/05/19 02:14:44;;;;;;;;;20.00;17.50;;;;;;;;1934332;28;2831541;-71
2023/05/19 02:15:55;;;;;;;;;26.00;21.50;;;;;;;;1932227;28;2836705;-71
2023/05/19 02:17:07;;;;;;;;;25.00;21.00;;;;;;;;1937804;28;3579392;-71
2023/05/19 02:18:20;;;;;;;;;24.60;20.40;;;;;;;;1971932;28;3564801;-71
2023/05/19 02:19:32;;;;;;;;;20.67;16.67;;;;;;;;1963663;28;2812755;-71
2023/05/19 02:20:43;;;;;;;;;20.00;20.00;;;;;;;;1960732;28;3575177;-71
2023/05/19 02:21:56;;;;;;;;;20.43;18.29;;;;;;;;1983833;28;3556464;-71
2023/05/19 02:23:08;;;;;;;;;24.60;18.60;;;;;;;;1972276;28;3555804;-71
2023/05/19 02:24:21;;;;;;;;;25.00;19.86;;;;;;;;1976553;28;3573536;-71
2023/05/19 02:25:33;;;;;;;;;25.67;20.00;;;;;;;;1949333;28;3575212;-71
2023/05/19 02:26:45;;;;;;;;;22.20;16.60;;;;;;;;1983256;28;3572088;-71
2023/05/19 02:27:57;;;;;;;;;25.00;18.33;;;;;;;;1968775;28;3574184;-71
2023/05/19 02:29:09;;;;;;;;;25.40;17.80;;;;;;;;1966499;28;3570025;-71
2023/05/19 02:30:20;;;;;;;;;28.40;19.40;;;;;;;;1978270;28;3561721;-71
2023/05/19 02:31:32;;;;;;;;;24.00;22.00;;;;;;;;1987963;28;3563194;-71
2023/05/19 02:32:45;;;;;;;;;27.00;17.43;;;;;;;;1984072;28;3547107;-71
2023/05/19 02:33:57;;;;;;;;;19.80;18.20;;;;;;;;1984433;28;3558530;-71
2023/05/19 02:35:08;;;;;;;;;17.25;14.50;;;;;;;;1981572;28;1825345;-71
2023/05/19 02:36:19;;;;;;;;;15.67;14.33;;;;;;;;1961497;28;3546083;-71
2023/05/19 02:37:31;;;;;;;;;23.40;19.20;;;;;;;;1983933;28;3571062;-71
2023/05/19 02:38:43;;;;;;;;;25.80;20.40;;;;;;;;1976322;28;3560611;-72
2023/05/19 02:39:56;;;;;;;;;23.00;19.71;;;;;;;;1977096;28;3563829;-71
2023/05/19 02:41:09;;;;;;;;;21.00;16.67;;;;;;;;1987374;28;2829413;-71
2023/05/19 02:42:21;;;;;;;;;21.60;18.40;;;;;;;;1960078;28;3561704;-71
2023/05/19 02:43:34;;;;;;;;;21.86;18.86;;;;;;;;1980174;28;3555457;-71
2023/05/19 02:44:46;;;;;;;;;21.20;17.40;;;;;;;;1982394;28;3564789;-71
2023/05/19 02:45:57;;;;;;;;;22.60;19.40;;;;;;;;1986599;28;3566855;-71
2023/05/19 02:47:10;;;;;;;;;21.00;19.80;;;;;;;;1989898;28;3562731;-71
2023/05/19 02:48:21;;;;;;;;;25.67;17.67;;;;;;;;1970156;28;3566907;-71
2023/05/19 02:49:36;;;;;;;;;29.60;23.60;;;;;;;;1980793;28;3579399;-71
2023/05/19 02:50:47;;;;;;;;;24.67;19.67;;;;;;;;1931577;28;3577265;-71
2023/05/19 02:51:59;;;;;;;;;26.60;20.60;;;;;;;;1988631;28;3580413;-71
2023/05/19 02:53:11;;;;;;;;;24.80;20.20;;;;;;;;1978124;29;3573125;-71
2023/05/19 02:54:24;;;;;;;;;22.43;20.14;;;;;;;;1976322;29;3561155;-71
2023/05/19 02:55:37;;;;;;;;;23.71;20.86;;;;;;;;1974382;28;3561726;-71
2023/05/19 02:56:49;;;;;;;;;22.60;20.40;;;;;;;;1988708;28;3557494;-71
2023/05/19 02:58:01;;;;;;;;;20.80;19.20;;;;;;;;1983646;28;3558539;-71
2023/05/19 02:59:13;;;;;;;;;17.29;14.00;;;;;;;;1976857;29;2815865;-71
2023/05/19 03:00:24;;;;;;;;;25.00;22.50;;;;;;;;1957854;28;2838098;-71
2023/05/19 03:01:39;;;;;;;;;25.57;22.57;;;;;;;;1957331;28;3567917;-71
2023/05/19 03:02:51;;;;;;;;;31.00;21.33;;;;;;;;1939247;28;2843988;-71
2023/05/19 03:04:02;;;;;;;;;27.50;19.50;;;;;;;;1957617;28;2854460;-71
2023/05/19 03:05:14;;;;;;;;;22.00;20.80;;;;;;;;1953894;28;3563724;-71
2023/05/19 03:06:25;;;;;;;;;29.00;22.00;;;;;;;;1985314;28;3590818;-71
2023/05/19 03:07:38;;;;;;;;;28.43;23.00;;;;;;;;1959320;28;3573146;-71
2023/05/19 03:08:50;;;;;;;;;20.40;17.80;;;;;;;;1965873;28;3557508;-71
2023/05/19 03:10:05;;;;;;;;;27.00;22.43;;;;;;;;1984518;28;3570005;-71
2023/05/19 03:11:15;;;;;;;;;28.00;21.00;;;;;;;;1938016;28;2841913;-71
2023/05/19 03:12:27;;;;;;;;;26.60;23.00;;;;;;;;1954205;28;3569970;-71
2023/05/19 03:13:40;;;;;;;;;28.29;22.29;;;;;;;;1984809;28;3577312;-71
2023/05/19 03:14:53;;;;;;;;;25.43;20.43;;;;;;;;1980063;28;3554432;-71
2023/05/19 03:16:06;;;;;;;;;26.14;21.71;;;;;;;;1982150;28;3570005;-71
2023/05/19 03:17:17;;;;;;;;;26.00;21.00;;;;;;;;1931666;28;2841925;-71
2023/05/19 03:18:29;;;;;;;;;20.40;18.20;;;;;;;;1955419;28;3563075;-71
2023/05/19 03:19:41;;;;;;;;;31.80;25.60;;;;;;;;1976621;28;3604422;-71
2023/05/19 03:20:55;;;;;;;;;13.50;9.50;;;;;;;;1959507;28;2782576;-71
2023/05/19 03:22:05;;;;;;;;;31.00;27.00;;;;;;;;1961974;28;2859629;-71
2023/05/19 03:23:17;;;;;;;;;29.60;24.00;;;;;;;;1953744;28;3591156;-71
2023/05/19 03:24:29;;;;;;;;;23.40;23.20;;;;;;;;1989117;28;3576243;-71
2023/05/19 03:25:41;;;;;;;;;28.20;22.60;;;;;;;;1986028;28;3589285;-71
2023/05/19 03:26:53;;;;;;;;;25.60;22.40;;;;;;;;1947108;29;3593975;-71
2023/05/19 03:28:05;;;;;;;;;24.40;23.00;;;;;;;;1963003;28;3583530;-72
2023/05/19 03:29:17;;;;;;;;;25.80;23.80;;;;;;;;1986697;28;3581446;-71
2023/05/19 03:30:29;;;;;;;;;28.20;22.40;;;;;;;;1987049;28;3582615;-71
2023/05/19 03:31:41;;;;;;;;;27.40;25.40;;;;;;;;1961510;28;3583542;-71
2023/05/19 03:32:53;;;;;;;;;28.60;24.20;;;;;;;;1982201;28;3587708;-71
2023/05/19 03:34:04;;;;;;;;;22.40;20.60;;;;;;;;1957247;29;3552277;-72
2023/05/19 03:35:17;;;;;;;;;25.80;24.40;;;;;;;;1981332;29;3582476;-72
2023/05/19 03:36:31;;;;;;;;;27.00;23.40;;;;;;;;1982085;28;3585602;-71
2023/05/19 03:37:41;;;;;;;;;28.50;24.00;;;;;;;;1962264;28;2861685;-71
2023/05/19 03:38:54;;;;;;;;;18.86;15.71;;;;;;;;1953466;28;3548139;-71
2023/05/19 03:40:07;;;;;;;;;28.60;23.60;;;;;;;;1980504;28;3584952;-71
2023/05/19 03:41:17;;;;;;;;;28.00;21.00;;;;;;;;1961009;28;2837718;-71
2023/05/19 03:42:29;;;;;;;;;32.40;28.60;;;;;;;;1963751;28;3596065;-71
2023/05/19 03:43:41;;;;;;;;;31.80;27.00;;;;;;;;1964767;28;3600215;-71
2023/05/19 03:44:53;;;;;;;;;22.40;21.20;;;;;;;;1965581;28;3575227;-71
2023/05/19 03:46:05;;;;;;;;;26.00;22.20;;;;;;;;1987834;28;3575580;-71
2023/05/19 03:47:18;;;;;;;;;30.29;25.00;;;;;;;;1981855;28;3587737;-71
2023/05/19 03:48:30;;;;;;;;;29.20;27.20;;;;;;;;1957111;28;3572076;-71
2023/05/19 03:49:42;;;;;;;;;21.60;20.20;;;;;;;;1989070;28;3570376;-71
2023/05/19 03:50:54;;;;;;;;;25.80;21.40;;;;;;;;1981020;28;3568943;-71
2023/05/19 03:52:06;;;;;;;;;31.20;26.20;;;;;;;;1976455;28;3593946;-72
2023/05/19 03:53:17;;;;;;;;;33.20;27.20;;;;;;;;1936775;29;2864916;-71
2023/05/19 03:54:29;;;;;;;;;26.00;24.80;;;;;;;;1980008;28;3596029;-71
2023/05/19 03:55:41;;;;;;;;;29.00;22.80;;;;;;;;1980278;28;3583000;-71
2023/05/19 03:56:53;;;;;;;;;25.20;22.40;;;;;;;;1963473;28;3570013;-71
2023/05/19 03:58:05;;;;;;;;;30.20;25.40;;;;;;;;1977352;28;3588094;-71
2023/05/19 03:59:16;;;;;;;;;31.67;22.67;;;;;;;;1948173;28;3598163;-71
2023/05/19 04:00:28;;;;;;;;;28.80;23.60;;;;;;;;1959465;28;3584566;-71
2023/05/19 04:01:40;;;;;;;;;30.00;23.80;;;;;;;;1964498;28;3591878;-71
2023/05/19 04:02:52;;;;;;;;;34.20;27.20;;;;;;;;1957346;28;3597079;-71
2023/05/19 04:04:04;;;;;;;;;28.67;22.67;;;;;;;;1951049;28;3583626;-71
2023/05/19 04:05:17;;;;;;;;;22.57;17.71;;;;;;;;1981877;28;3562714;-71
2023/05/19 04:06:30;;;;;;;;;31.29;26.00;;;;;;;;1980562;28;3603364;-71
2023/05/19 04:07:41;;;;;;;;;22.40;22.40;;;;;;;;1947698;28;2836673;-71
2023/05/19 04:08:53;;;;;;;;;27.67;24.33;;;;;;;;1955813;28;3584584;-71
2023/05/19 04:10:05;;;;;;;;;26.60;24.40;;;;;;;;1964561;28;3584662;-72
2023/05/19 04:11:18;;;;;;;;;24.60;23.00;;;;;;;;1943205;28;3580393;-71
2023/05/19 04:12:30;;;;;;;;;31.00;27.33;;;;;;;;1958503;28;3576235;-71
2023/05/19 04:13:41;;;;;;;;;34.50;26.50;;;;;;;;1932428;28;2858583;-71
2023/05/19 04:14:53;;;;;;;;;25.40;23.20;;;;;;;;1957080;29;3576260;-71
2023/05/19 04:16:05;;;;;;;;;30.40;26.80;;;;;;;;1983389;28;3585598;-71
2023/05/19 04:17:17;;;;;;;;;32.80;26.40;;;;;;;;1973012;28;3582859;-71
2023/05/19 04:18:30;;;;;;;;;29.57;23.71;;;;;;;;1954371;28;3570021;-71
2023/05/19 04:19:41;;;;;;;;;33.20;28.20;;;;;;;;1945998;28;3597085;-71
2023/05/19 04:20:53;;;;;;;;;33.60;27.40;;;;;;;;1961499;28;3604394;-72
2023/05/19 04:22:05;;;;;;;;;30.20;26.00;;;;;;;;1967119;28;3587719;-71
2023/05/19 04:23:17;;;;;;;;;26.60;24.60;;;;;;;;1963749;28;3587700;-71
2023/05/19 04:24:28;;;;;;;;;35.60;27.40;;;;;;;;1942375;28;2862725;-71
2023/05/19 04:25:40;;;;;;;;;25.33;23.00;;;;;;;;1956567;28;3579371;-71
2023/05/19 04:26:52;;;;;;;;;28.67;24.67;;;;;;;;1958323;28;3586325;-71
2023/05/19 04:28:03;;;;;;;;;36.00;28.80;;;;;;;;1961335;28;3600257;-71
2023/05/19 04:29:17;;;;;;;;;33.20;27.60;;;;;;;;1956329;28;3604347;-71
2023/05/19 04:30:29;;;;;;;;;35.33;30.33;;;;;;;;1931506;28;3590822;-71
2023/05/19 04:31:41;;;;;;;;;32.33;24.67;;;;;;;;1934935;28;3593998;-71
2023/05/19 04:32:53;;;;;;;;;30.20;28.20;;;;;;;;1981967;28;3585621;-71
2023/05/19 04:34:06;;;;;;;;;33.00;23.00;;;;;;;;1941745;28;3595017;-71
2023/05/19 04:35:16;;;;;;;;;34.00;30.00;;;;;;;;1959890;28;2856515;-71
2023/05/19 04:36:27;;;;;;;;;32.60;25.80;;;;;;;;1940674;28;2869055;-71
2023/05/19 04:37:39;;;;;;;;;32.00;25.80;;;;;;;;1960480;28;3604347;-71
2023/05/19 04:38:53;;;;;;;;;26.60;23.20;;;;;;;;1953859;28;3581466;-71
2023/05/19 04:40:05;;;;;;;;;34.67;29.67;;;;;;;;1953099;29;3593931;-71
2023/05/19 04:41:17;;;;;;;;;29.60;27.20;;;;;;;;1944653;28;3594977;-71
2023/05/19 04:42:29;;;;;;;;;27.00;23.33;;;;;;;;1941356;28;3595047;-71
2023/05/19 04:43:40;;;;;;;;;35.67;30.00;;;;;;;;1961013;28;3582525;-71
2023/05/19 04:44:52;;;;;;;;;33.60;24.60;;;;;;;;1987566;28;3591883;-71
2023/05/19 04:46:05;;;;;;;;;29.43;25.14;;;;;;;;1959917;28;3585645;-71
2023/05/19 04:47:20;;;;;;;;;26.40;23.60;;;;;;;;1951080;28;3562682;-71
2023/05/19 04:48:30;;;;;;;;;28.00;20.00;;;;;;;;1955296;29;2853351;-71
2023/05/19 04:49:42;;;;;;;;;31.33;25.00;;;;;;;;1940775;28;3591989;-71
2023/05/19 04:50:54;;;;;;;;;32.40;27.40;;;;;;;;1964180;28;3593007;-71
2023/05/19 04:52:09;;;;;;;;;29.60;27.00;;;;;;;;1964583;28;3584561;-72
2023/05/19 04:53:20;;;;;;;;;31.00;25.00;;;;;;;;1933997;28;2860671;-71
2023/05/19 04:54:33;;;;;;;;;34.67;27.67;;;;;;;;1935532;28;3603380;-71
2023/05/19 04:55:44;;;;;;;;;27.50;22.50;;;;;;;;1936424;28;2851330;-71
2023/05/19 04:56:55;;;;;;;;;27.40;24.20;;;;;;;;1939200;28;3581450;-72
2023/05/19 04:58:08;;;;;;;;;28.57;25.57;;;;;;;;1984210;28;3581487;-71
2023/05/19 04:59:21;;;;;;;;;27.80;25.00;;;;;;;;1964248;28;3587712;-71
2023/05/19 05:00:34;;;;;;;;;28.00;25.00;;;;;;;;1938422;28;2852333;-71
2023/05/19 05:01:45;;;;;;;;;34.67;25.00;;;;;;;;1930457;28;3610625;-71
2023/05/19 05:02:57;;;;;;;;;26.00;22.60;;;;;;;;1957278;28;3579363;-71
2023/05/19 05:04:10;;;;;;;;;27.86;25.00;;;;;;;;1955978;28;3582582;-71
2023/05/19 05:05:23;;;;;;;;;29.40;25.00;;;;;;;;1956557;28;3568985;-71
2023/05/19 05:06:37;;;;;;;;;28.00;24.00;;;;;;;;1966100;28;3573509;-71
2023/05/19 05:07:49;;;;;;;;;29.33;26.33;;;;;;;;1955900;28;3582483;-72
2023/05/19 05:09:02;;;;;;;;;29.20;27.80;;;;;;;;1946497;28;3582551;-72
2023/05/19 05:10:13;;;;;;;;;29.00;22.00;;;;;;;;1938957;28;2836696;-72
2023/05/19 05:11:25;;;;;;;;;30.00;26.40;;;;;;;;1959835;28;3593563;-71
2023/05/19 05:12:37;;;;;;;;;27.40;23.60;;;;;;;;1945474;28;3580422;-72
2023/05/19 05:13:50;;;;;;;;;29.29;24.86;;;;;;;;1975125;28;3584670;-72
2023/05/19 05:15:02;;;;;;;;;35.20;29.80;;;;;;;;1950056;28;3606478;-72
2023/05/19 05:16:14;;;;;;;;;32.80;25.20;;;;;;;;1952041;28;3600560;-72
2023/05/19 05:17:25;;;;;;;;;33.00;26.60;;;;;;;;1940330;28;2863802;-72
2023/05/19 05:18:37;;;;;;;;;29.00;23.50;;;;;;;;1962411;28;2851263;-72
2023/05/19 05:19:48;;;;;;;;;25.00;24.00;;;;;;;;1941927;28;2849173;-71
2023/05/19 05:21:00;;;;;;;;;27.86;23.43;;;;;;;;1953479;28;3578382;-72
2023/05/19 05:22:12;;;;;;;;;27.00;24.00;;;;;;;;1946957;28;3589862;-72
2023/05/19 05:23:24;;;;;;;;;28.60;24.80;;;;;;;;1955199;28;3575232;-72
2023/05/19 05:24:36;;;;;;;;;30.80;24.80;;;;;;;;1984130;28;3587697;-72
2023/05/19 05:25:48;;;;;;;;;44.20;31.60;;;;;;;;1958200;28;3631438;-71
2023/05/19 05:27:00;;;;;;;;;36.40;30.00;;;;;;;;1960872;28;3599171;-71
2023/05/19 05:28:13;;;;;;;;;29.14;24.14;;;;;;;;1962200;28;3580457;-72
2023/05/19 05:29:25;;;;;;;;;37.00;28.40;;;;;;;;1957377;28;3605402;-72
2023/05/19 05:30:37;;;;;;;;;34.20;27.00;;;;;;;;1958835;28;3598104;-72
2023/05/19 05:31:49;;;;;;;;;33.60;29.80;;;;;;;;1961723;28;3587689;-72
2023/05/19 05:33:01;;;;;;;;;24.60;22.20;;;;;;;;1964435;28;3573125;-72
2023/05/19 05:34:13;;;;;;;;;34.80;28.80;;;;;;;;1980062;28;3609567;-72
2023/05/19 05:35:25;;;;;;;;;28.40;23.80;;;;;;;;1965616;28;3583569;-72
2023/05/19 05:36:37;;;;;;;;;27.00;26.00;;;;;;;;1959476;28;3582501;-72
2023/05/19 05:37:49;;;;;;;;;32.60;27.40;;;;;;;;1957890;28;3603743;-72
2023/05/19 05:39:01;;;;;;;;;27.40;23.60;;;;;;;;1966361;28;3586661;-72
2023/05/19 05:40:13;;;;;;;;;35.33;27.67;;;;;;;;1953955;28;3596066;-72
2023/05/19 05:41:26;;;;;;;;;29.40;26.20;;;;;;;;1960922;28;3590853;-72
2023/05/19 05:42:37;;;;;;;;;33.33;29.33;;;;;;;;1929997;28;3588829;-72
2023/05/19 05:43:50;;;;;;;;;31.71;25.71;;;;;;;;1954615;28;3603771;-72
2023/05/19 05:45:02;;;;;;;;;25.40;24.80;;;;;;;;1966990;28;3578689;-73
2023/05/19 05:46:14;;;;;;;;;27.60;27.00;;;;;;;;1983656;28;3584600;-72
2023/05/19 05:47:26;;;;;;;;;27.00;24.20;;;;;;;;1983345;28;3583577;-72
2023/05/19 05:48:38;;;;;;;;;21.40;20.40;;;;;;;;1975308;28;3551319;-72
2023/05/19 05:49:50;;;;;;;;;27.33;23.00;;;;;;;;1965769;28;3563766;-72
2023/05/19 05:51:02;;;;;;;;;27.80;23.60;;;;;;;;1981917;28;3593954;-73
2023/05/19 05:52:14;;;;;;;;;30.80;25.80;;;;;;;;1958466;28;3597111;-72
2023/05/19 05:53:29;;;;;;;;;34.00;27.40;;;;;;;;1951588;28;3602363;-72
2023/05/19 05:54:39;;;;;;;;;23.50;21.00;;;;;;;;1936996;28;2833555;-72
2023/05/19 05:55:52;;;;;;;;;28.00;24.80;;;;;;;;1960457;28;3583594;-72
2023/05/19 05:57:03;;;;;;;;;27.50;27.50;;;;;;;;1962863;28;2841904;-72
2023/05/19 05:58:15;;;;;;;;;37.33;25.67;;;;;;;;1949659;28;3628451;-72
2023/05/19 05:59:26;;;;;;;;;29.50;28.00;;;;;;;;1936086;28;2839905;-72
2023/05/19 06:00:38;;;;;;;;;27.20;22.20;;;;;;;;1952332;28;3585609;-72
2023/05/19 06:01:50;;;;;;;;;25.00;22.57;;;;;;;;1980923;28;3572108;-72
2023/05/19 06:03:04;;;;;;;;;24.43;21.57;;;;;;;;1983832;28;3581486;-72
2023/05/19 06:04:14;;;;;;;;;25.50;23.50;;;;;;;;1942882;28;2842991;-71
2023/05/19 06:05:26;;;;;;;;;29.20;27.00;;;;;;;;1980499;28;3581502;-71
2023/05/19 06:06:38;;;;;;;;;29.40;27.80;;;;;;;;1987604;28;3586644;-71
2023/05/19 06:07:50;;;;;;;;;33.80;27.40;;;;;;;;1983406;28;3606435;-71
2023/05/19 06:09:02;;;;;;;;;27.20;26.40;;;;;;;;1954680;28;3584592;-71
2023/05/19 06:10:14;;;;;;;;;34.40;27.60;;;;;;;;1949949;29;3587775;-71
2023/05/19 06:11:25;;;;;;;;;34.20;27.20;;;;;;;;1962671;28;2863779;-71
2023/05/19 06:12:39;;;;;;;;;33.33;25.00;;;;;;;;1960104;28;3594424;-72
2023/05/19 06:13:49;;;;;;;;;30.00;24.00;;;;;;;;1940874;28;2834685;-72
2023/05/19 06:15:02;;;;;;;;;25.60;23.80;;;;;;;;1955147;28;3578388;-72
2023/05/19 06:16:13;;;;;;;;;29.60;24.20;;;;;;;;1974621;28;3596058;-72
2023/05/19 06:17:25;;;;;;;;;29.20;23.60;;;;;;;;1963387;28;3580443;-72
2023/05/19 06:18:37;;;;;;;;;26.60;24.20;;;;;;;;1981421;28;3572070;-72
2023/05/19 06:19:50;;;;;;;;;29.00;25.29;;;;;;;;1957851;28;3581474;-72
2023/05/19 06:21:03;;;;;;;;;23.43;21.71;;;;;;;;1953396;28;3568999;-72
2023/05/19 06:22:16;;;;;;;;;24.00;23.00;;;;;;;;1953395;28;3581499;-72
2023/05/19 06:23:29;;;;;;;;;30.00;23.20;;;;;;;;1948242;28;3588736;-72
2023/05/19 06:24:39;;;;;;;;;32.00;27.00;;;;;;;;1933032;28;2858571;-72
2023/05/19 06:25:51;;;;;;;;;27.20;22.20;;;;;;;;1958768;28;3584611;-72
2023/05/19 06:27:03;;;;;;;;;33.40;25.20;;;;;;;;1982857;28;3603337;-71
2023/05/19 06:28:15;;;;;;;;;25.60;23.40;;;;;;;;1958500;28;3574219;-72
2023/05/19 06:29:27;;;;;;;;;23.60;23.60;;;;;;;;1981489;28;3582481;-71
2023/05/19 06:30:39;;;;;;;;;25.40;21.40;;;;;;;;1985966;28;3578688;-72
2023/05/19 06:31:51;;;;;;;;;30.80;25.20;;;;;;;;1979544;28;3588735;-72
2023/05/19 06:33:03;;;;;;;;;25.80;21.80;;;;;;;;1964478;28;3563120;-72
2023/05/19 06:34:16;;;;;;;;;28.00;24.60;;;;;;;;1984153;28;3584600;-72
2023/05/19 06:35:27;;;;;;;;;26.67;23.33;;;;;;;;1935155;28;3585642;-72
2023/05/19 06:36:40;;;;;;;;;25.00;21.14;;;;;;;;1972933;28;3562713;-72
2023/05/19 06:37:52;;;;;;;;;27.80;24.20;;;;;;;;1957046;29;3586682;-72
2023/05/19 06:39:03;;;;;;;;;17.50;15.50;;;;;;;;1962695;28;1829453;-71
2023/05/19 06:40:14;;;;;;;;;17.67;15.67;;;;;;;;1961051;28;3534622;-71
2023/05/19 06:41:26;;;;;;;;;26.00;21.20;;;;;;;;1971920;28;3579776;-71
2023/05/19 06:42:38;;;;;;;;;25.40;21.60;;;;;;;;1961601;28;3577293;-71
2023/05/19 06:43:50;;;;;;;;;34.20;24.60;;;;;;;;1963735;28;3599150;-71
2023/05/19 14:51:55;;;;;;;;;8.50;8.00;;;;;;;;2233710;23;2747176;-72
2023/05/19 14:53:06;;;;;;;;;8.33;8.00;;;;;;;;1993555;28;2739906;-72
2023/05/19 14:54:17;;;;;;;;;11.00;9.00;;;;;;;;1997189;28;2762785;-72
2023/05/19 14:55:28;;;;;;;;;10.00;8.67;;;;;;;;2006973;28;1823248;-72
2023/05/19 14:56:39;;;;;;;;;11.50;9.50;;;;;;;;1993870;28;1827377;-72
2023/05/19 14:57:49;;;;;;;;;10.00;7.00;;;;;;;;1977392;28;3474191;-72